Startpagina
METAR-TAF:

METAR-TAF

Vliegvelden :

Nouméa / La Tontouta, Nieuw-Caledonië

breedte: 22-01S, lengte: 166-13E, hoogte: 16 m

Actueel weer

Dit bericht is 15 minuten geleden gemaakt, om 16:30 UTC
Weinig wind
Temperatuur 23°C
Vochtigheid 100%
Druk 1010 hPa
Zicht 10 km of meer
geen wolken onder 1500 m en geen cumulonimbus

METAR: NWWW 221630Z AUTO 00000KT CAVOK 23/23 Q1010 NOSIG

Tijdstip: 03:45 (16:45 UTC)

Verwachting

Dit bericht is 5 uur en het 45 minuten geleden gemaakt, om 11:00 UTC
Verwachting geldig van 22 om 12 UTC tot 23 om 12 UTC
Wind 2 kt uit variabele richting
Zicht 10 km of meer
Verspreide wolken op 3500 ft
Wijzigt naar
van 22 om 22 UTC tot 22 om 24 UTC
Wind 10 kt uit het zuidoosten
Tijdelijke
van 23 om 00 UTC tot 23 om 06 UTC
Zicht: 4000 m
Weinig wolken op 3000 ft, Cumulonimbus.
regenbuien
Wijzigt naar
van 23 om 06 UTC tot 23 om 08 UTC
Wind 2 kt uit variabele richting

TAF: NWWW 221100Z 2212/2312 VRB02KT 9999 SCT035 BECMG 2222/2224 14010KT TEMPO 2300/2306 4000 SHRA FEW030CB BECMG 2306/2308 VRB02KT

Waarnemingen en weersverwachtingen van meer dan 4000 vliegvelden (METAR en TAF).

De beschikbare stations zijn de gele en rode punten op de kaart.

Ga met uw muis naar het station om de naam te zien.

Klik dan om waarnemingen en weersverwachtingen te zien.

kaart wijzigen: klik op de groene knoppen met een zwart kruis om in te zoomen, op de groene knop met een streepje om uit te zoomen of op de groene pijlen voor aangrenzende kaarten.


METAR-TAF: